createdAt,value
2017-12-27T00:01:33.353Z,42.20
2017-12-27T00:04:05.877Z,42.20
2017-12-27T00:06:38.514Z,42.20
2017-12-27T00:09:11.107Z,42.20
2017-12-27T00:11:43.858Z,42.20
2017-12-27T00:14:16.565Z,42.10
2017-12-27T00:16:49.100Z,42.20
2017-12-27T00:19:21.603Z,42.10
2017-12-27T00:21:54.061Z,42.10
2017-12-27T00:24:27.326Z,42.50
2017-12-27T00:27:00.728Z,42.40
2017-12-27T00:29:33.245Z,42.10
2017-12-27T00:32:06.430Z,42.10
2017-12-27T00:34:38.969Z,42.10
2017-12-27T00:37:11.458Z,42.10
2017-12-27T00:39:44.804Z,42.20
2017-12-27T00:42:18.090Z,42.60
2017-12-27T00:44:50.528Z,42.10
2017-12-27T00:47:23.888Z,42.20
2017-12-27T00:49:56.572Z,42.10
2017-12-27T00:52:29.866Z,42.10
2017-12-27T00:55:03.160Z,42.20
2017-12-27T00:57:36.483Z,42.20
2017-12-27T01:00:09.050Z,42.20
2017-12-27T01:02:42.215Z,42.20
2017-12-27T01:05:15.542Z,42.10
2017-12-27T01:07:51.328Z,42.10
2017-12-27T01:10:24.548Z,42.10
2017-12-27T01:12:57.492Z,42.10
2017-12-27T01:15:30.116Z,42.20
2017-12-27T01:18:02.693Z,42.10
2017-12-27T01:20:35.265Z,42.10
2017-12-27T01:23:07.851Z,42.10
2017-12-27T01:25:40.284Z,42.10
2017-12-27T01:28:12.812Z,42.10
2017-12-27T01:30:45.261Z,42.20
2017-12-27T01:33:17.864Z,42.10
2017-12-27T01:35:51.130Z,42.20
2017-12-27T01:38:24.621Z,42.20
2017-12-27T01:40:57.096Z,42.10
2017-12-27T01:43:30.416Z,42.10
2017-12-27T01:46:02.964Z,42.10
2017-12-27T01:48:35.548Z,42.10
2017-12-27T01:51:08.132Z,42.10
2017-12-27T01:53:41.335Z,42.10
2017-12-27T01:56:13.781Z,42.10
2017-12-27T01:58:46.248Z,42.10
2017-12-27T02:01:19.748Z,42.10
2017-12-27T02:03:52.452Z,42.10
2017-12-27T02:06:25.160Z,42.10
2017-12-27T02:08:57.780Z,42.10
2017-12-27T02:11:31.094Z,42.10
2017-12-27T02:14:04.588Z,42.10
2017-12-27T02:16:37.158Z,42.00
2017-12-27T02:19:09.720Z,42.10
2017-12-27T02:21:42.228Z,42.10
2017-12-27T02:24:15.629Z,42.20
2017-12-27T02:26:48.509Z,42.10
2017-12-27T02:29:21.040Z,42.10
2017-12-27T02:31:53.527Z,42.10
2017-12-27T02:34:26.005Z,42.10
2017-12-27T02:36:58.529Z,42.10
2017-12-27T02:39:31.177Z,42.10
2017-12-27T02:42:04.445Z,42.10
2017-12-27T02:44:37.024Z,42.10
2017-12-27T02:47:10.240Z,42.10
2017-12-27T02:49:42.782Z,42.00
2017-12-27T02:52:16.071Z,42.10
2017-12-27T02:54:48.755Z,42.10
2017-12-27T02:57:21.271Z,42.00
2017-12-27T02:59:53.912Z,42.10
2017-12-27T03:02:26.380Z,42.00
2017-12-27T03:04:58.813Z,42.10
2017-12-27T03:07:31.319Z,42.00
2017-12-27T03:10:03.819Z,42.00
2017-12-27T03:12:36.373Z,42.00
2017-12-27T03:15:08.857Z,42.60
2017-12-27T03:17:41.411Z,42.10
2017-12-27T03:20:13.827Z,42.00
2017-12-27T03:22:46.600Z,42.10
2017-12-27T03:25:19.074Z,42.00
2017-12-27T03:27:51.740Z,42.00
2017-12-27T03:30:24.294Z,42.10
2017-12-27T03:32:57.686Z,42.20
2017-12-27T03:35:30.250Z,42.00
2017-12-27T03:38:02.771Z,42.10
2017-12-27T03:40:35.280Z,42.00
2017-12-27T03:43:08.607Z,42.10
2017-12-27T03:45:41.897Z,42.10
2017-12-27T03:48:15.120Z,42.10
2017-12-27T03:50:47.535Z,42.00
2017-12-27T03:53:20.134Z,42.00
2017-12-27T03:55:52.628Z,42.10
2017-12-27T03:58:25.082Z,42.10
2017-12-27T04:00:57.652Z,42.00
2017-12-27T04:03:30.209Z,42.00
2017-12-27T04:06:02.720Z,42.00
2017-12-27T04:08:35.455Z,42.10
2017-12-27T04:11:08.058Z,42.20
2017-12-27T04:13:42.391Z,42.00
2017-12-27T04:16:14.985Z,42.00
2017-12-27T04:18:47.510Z,42.00
2017-12-27T04:21:20.024Z,42.00
2017-12-27T04:23:53.395Z,42.30
2017-12-27T04:26:26.175Z,42.00
2017-12-27T04:28:58.737Z,42.00
2017-12-27T04:31:32.045Z,42.00
2017-12-27T04:34:05.316Z,42.30
2017-12-27T04:36:38.661Z,42.20
2017-12-27T04:39:11.206Z,42.00
2017-12-27T04:41:44.495Z,42.00
2017-12-27T04:44:17.020Z,42.00
2017-12-27T04:46:50.602Z,42.10
2017-12-27T04:49:23.145Z,42.00
2017-12-27T04:51:55.753Z,42.00
2017-12-27T04:54:29.018Z,42.10
2017-12-27T04:57:02.328Z,42.00
2017-12-27T04:59:34.782Z,42.00
2017-12-27T05:02:07.460Z,42.00
2017-12-27T05:04:40.143Z,42.60
2017-12-27T05:07:12.809Z,42.00
2017-12-27T05:09:45.588Z,42.00
2017-12-27T05:12:18.201Z,42.00
2017-12-27T05:14:50.951Z,42.00
2017-12-27T05:17:23.641Z,42.00
2017-12-27T05:19:56.201Z,42.00
2017-12-27T05:22:28.978Z,42.00
2017-12-27T05:25:01.470Z,42.00
2017-12-27T05:27:34.077Z,42.00
2017-12-27T05:32:44.809Z,42.00
2017-12-27T05:35:17.594Z,42.00
2017-12-27T05:37:50.202Z,42.00
2017-12-27T05:40:22.776Z,42.00
2017-12-27T05:42:55.523Z,42.00
2017-12-27T05:45:29.669Z,42.10
2017-12-27T05:48:02.988Z,42.00
2017-12-27T05:50:35.408Z,42.00
2017-12-27T05:53:08.690Z,42.10
2017-12-27T05:55:41.992Z,42.00
2017-12-27T05:58:15.412Z,42.10
2017-12-27T06:00:47.987Z,42.00
2017-12-27T06:03:20.570Z,42.10
2017-12-27T06:05:53.141Z,42.00
2017-12-27T06:08:25.682Z,42.00
2017-12-27T06:10:58.465Z,42.00
2017-12-27T06:13:31.046Z,42.00
2017-12-27T06:16:03.508Z,42.00
2017-12-27T06:18:36.096Z,42.00
2017-12-27T06:21:08.643Z,42.00
2017-12-27T06:23:41.376Z,42.00
2017-12-27T06:26:14.020Z,42.00
2017-12-27T06:28:46.466Z,42.00
2017-12-27T06:31:19.076Z,42.00
2017-12-27T06:33:52.667Z,42.10
2017-12-27T06:41:43.144Z,42.00
2017-12-27T06:44:16.486Z,42.10
2017-12-27T06:46:49.092Z,42.10
2017-12-27T06:49:21.532Z,42.00
2017-12-27T06:51:54.324Z,42.00
2017-12-27T06:54:27.093Z,42.00
2017-12-27T06:57:00.387Z,42.40
2017-12-27T06:59:33.080Z,42.00
2017-12-27T07:02:05.736Z,42.00
2017-12-27T07:04:38.321Z,42.00
2017-12-27T07:07:10.721Z,42.00
2017-12-27T07:09:43.367Z,42.00
2017-12-27T07:12:16.862Z,42.00
2017-12-27T07:14:49.676Z,42.00
2017-12-27T07:17:22.994Z,42.00
2017-12-27T07:19:55.718Z,41.90
2017-12-27T07:22:28.197Z,42.00
2017-12-27T07:25:01.039Z,42.00
2017-12-27T07:27:33.649Z,41.90
2017-12-27T07:30:06.215Z,41.90
2017-12-27T07:32:38.694Z,42.00
2017-12-27T07:35:11.201Z,42.00
2017-12-27T07:37:43.740Z,41.90
2017-12-27T07:40:16.455Z,42.00
2017-12-27T07:42:48.931Z,41.90
2017-12-27T07:45:21.365Z,41.90
2017-12-27T07:47:53.847Z,42.00
2017-12-27T07:50:26.453Z,41.90
2017-12-27T07:52:59.006Z,42.00
2017-12-27T07:55:31.464Z,41.90
2017-12-27T07:58:04.095Z,42.00
2017-12-27T08:00:36.578Z,41.90
2017-12-27T08:03:09.109Z,41.90
2017-12-27T08:05:41.664Z,42.00
2017-12-27T08:08:14.185Z,41.90
2017-12-27T08:10:46.797Z,42.00
2017-12-27T08:13:19.491Z,41.90
2017-12-27T08:18:29.556Z,41.90
2017-12-27T08:21:02.064Z,41.90
2017-12-27T08:23:34.826Z,42.00
2017-12-27T08:26:07.385Z,42.00
2017-12-27T08:28:40.079Z,41.90
2017-12-27T08:31:12.780Z,41.90
2017-12-27T08:33:45.399Z,41.90
2017-12-27T08:36:18.081Z,41.90
2017-12-27T08:38:50.506Z,42.00
2017-12-27T08:41:23.872Z,41.90
2017-12-27T08:43:57.696Z,41.90
2017-12-27T08:46:30.245Z,41.90
2017-12-27T08:49:03.626Z,41.80
2017-12-27T08:51:36.316Z,42.50
2017-12-27T08:54:08.812Z,41.90
2017-12-27T08:56:41.475Z,41.90
2017-12-27T08:59:13.845Z,41.90
2017-12-27T09:01:46.531Z,41.90
2017-12-27T09:04:19.194Z,41.90
2017-12-27T09:06:51.872Z,42.00
2017-12-27T09:09:24.690Z,41.90
2017-12-27T09:11:57.432Z,41.90
2017-12-27T09:14:30.837Z,41.90
2017-12-27T09:17:03.735Z,41.90
2017-12-27T09:19:36.285Z,41.90
2017-12-27T09:22:08.936Z,42.00
2017-12-27T09:24:41.581Z,42.70
2017-12-27T09:27:14.227Z,42.00
2017-12-27T09:29:46.689Z,41.90
2017-12-27T09:32:20.868Z,41.90
2017-12-27T09:34:53.595Z,41.90
2017-12-27T09:37:26.153Z,41.90
2017-12-27T09:39:58.629Z,41.90
2017-12-27T09:42:31.942Z,41.90
2017-12-27T09:45:04.749Z,41.90
2017-12-27T09:47:38.268Z,41.90
2017-12-27T09:50:10.810Z,42.00
2017-12-27T09:52:43.347Z,42.00
2017-12-27T09:55:17.054Z,41.90
2017-12-27T09:57:49.526Z,41.90
2017-12-27T10:00:22.215Z,41.90
2017-12-27T10:02:54.812Z,41.90
2017-12-27T10:05:27.456Z,41.90
2017-12-27T10:08:00.748Z,41.90
2017-12-27T10:10:34.040Z,41.90
2017-12-27T10:13:06.723Z,41.90
2017-12-27T10:15:39.477Z,41.90
2017-12-27T10:18:12.973Z,42.10
2017-12-27T10:20:45.365Z,42.00
2017-12-27T10:23:17.970Z,41.90
2017-12-27T10:25:51.236Z,42.00
2017-12-27T10:28:24.628Z,41.90
2017-12-27T10:30:57.240Z,41.90
2017-12-27T10:33:29.779Z,42.00
2017-12-27T10:36:02.266Z,42.00
2017-12-27T10:38:35.544Z,41.90
2017-12-27T10:41:08.017Z,41.90
2017-12-27T10:43:40.574Z,41.90
2017-12-27T10:46:13.158Z,41.90
2017-12-27T10:48:45.845Z,41.90
2017-12-27T10:51:18.562Z,41.90
2017-12-27T10:53:51.116Z,41.90
2017-12-27T10:56:24.699Z,42.00
2017-12-27T10:59:00.588Z,41.90
2017-12-27T11:01:33.264Z,41.90
2017-12-27T11:04:06.219Z,42.00
2017-12-27T11:06:38.747Z,41.90
2017-12-27T11:09:11.606Z,41.90
2017-12-27T11:11:44.496Z,42.00
2017-12-27T11:14:18.056Z,42.00
2017-12-27T11:16:50.764Z,41.90
2017-12-27T11:19:24.434Z,41.90
2017-12-27T11:21:57.732Z,42.10
2017-12-27T11:24:31.266Z,42.00
2017-12-27T11:27:03.937Z,41.90
2017-12-27T11:29:36.416Z,41.90
2017-12-27T11:32:08.997Z,42.10
2017-12-27T11:34:41.500Z,42.00
2017-12-27T11:37:13.996Z,42.00
2017-12-27T11:39:46.711Z,41.90
2017-12-27T11:42:19.073Z,42.00
2017-12-27T11:44:51.725Z,41.90
2017-12-27T11:47:25.034Z,42.00
2017-12-27T11:49:58.373Z,42.00
2017-12-27T11:52:30.987Z,41.90
2017-12-27T11:55:03.561Z,42.00
2017-12-27T11:57:36.145Z,41.90
2017-12-27T12:00:08.746Z,41.90
2017-12-27T12:02:41.395Z,42.10
2017-12-27T12:05:14.007Z,41.90
2017-12-27T12:07:47.192Z,42.00
2017-12-27T12:10:19.963Z,41.90
2017-12-27T12:12:53.465Z,42.10
2017-12-27T12:15:26.109Z,41.90
2017-12-27T12:17:58.621Z,42.10
2017-12-27T12:20:31.069Z,42.00
2017-12-27T12:23:03.733Z,42.00
2017-12-27T12:25:36.352Z,42.10
2017-12-27T12:28:08.916Z,42.10
2017-12-27T12:30:41.495Z,42.10
2017-12-27T12:33:13.937Z,42.00
2017-12-27T12:35:46.526Z,42.10
2017-12-27T12:38:19.021Z,42.10
2017-12-27T12:40:51.494Z,42.00
2017-12-27T12:43:23.902Z,42.00
2017-12-27T12:45:56.510Z,42.00
2017-12-27T12:48:29.161Z,42.00
2017-12-27T12:51:01.792Z,42.10
2017-12-27T12:53:34.436Z,42.10
2017-12-27T12:56:07.096Z,42.10
2017-12-27T12:58:40.308Z,42.00
2017-12-27T13:01:13.621Z,42.10
2017-12-27T13:03:47.127Z,42.20
2017-12-27T13:06:19.601Z,42.00
2017-12-27T13:08:52.158Z,42.10
2017-12-27T13:11:24.737Z,42.00
2017-12-27T13:13:57.151Z,42.00
2017-12-27T13:16:29.772Z,42.10
2017-12-27T13:19:02.118Z,42.10
2017-12-27T13:21:35.429Z,42.10
2017-12-27T13:24:08.798Z,42.50
2017-12-27T13:26:41.370Z,42.00
2017-12-27T13:29:14.110Z,42.00
2017-12-27T13:31:46.656Z,42.00
2017-12-27T13:34:19.127Z,42.00
2017-12-27T13:36:51.598Z,42.00
2017-12-27T13:39:25.098Z,42.20
2017-12-27T13:41:58.396Z,42.10
2017-12-27T13:44:30.970Z,42.00
2017-12-27T13:47:05.088Z,42.10
2017-12-27T13:49:38.468Z,42.10
2017-12-27T13:52:10.989Z,42.10
2017-12-27T13:54:43.527Z,42.20
2017-12-27T13:57:17.029Z,42.10
2017-12-27T13:59:49.495Z,42.00
2017-12-27T14:02:22.309Z,42.10
2017-12-27T14:04:54.949Z,42.20
2017-12-27T14:07:27.790Z,42.10
2017-12-27T14:10:01.544Z,42.10
2017-12-27T14:12:34.128Z,42.20
2017-12-27T14:15:07.605Z,42.20
2017-12-27T14:17:40.285Z,42.10
2017-12-27T14:20:13.578Z,42.20
2017-12-27T14:22:46.305Z,42.20
2017-12-27T14:25:19.153Z,42.70
2017-12-27T14:27:51.814Z,42.20
2017-12-27T14:30:24.374Z,42.20
2017-12-27T14:32:57.098Z,42.10
2017-12-27T14:35:30.361Z,42.10
2017-12-27T14:38:02.831Z,42.10
2017-12-27T14:40:36.148Z,42.20
2017-12-27T14:45:46.001Z,42.20
2017-12-27T14:48:18.606Z,42.20
2017-12-27T14:50:51.139Z,42.20
2017-12-27T14:53:23.812Z,42.20
2017-12-27T14:55:56.296Z,42.20
2017-12-27T14:58:28.966Z,42.20
2017-12-27T15:01:01.603Z,42.20
2017-12-27T15:03:35.145Z,42.30
2017-12-27T15:06:07.935Z,42.20
2017-12-27T15:08:40.510Z,42.30
2017-12-27T15:11:13.967Z,42.30
2017-12-27T15:13:46.475Z,42.20
2017-12-27T15:16:20.080Z,42.20
2017-12-27T15:18:52.601Z,42.30
2017-12-27T15:21:25.113Z,42.20
2017-12-27T15:23:57.927Z,42.20
2017-12-27T15:26:31.733Z,42.20
2017-12-27T15:29:04.411Z,42.20
2017-12-27T15:31:37.771Z,42.30
2017-12-27T15:34:10.301Z,42.20
2017-12-27T15:36:42.930Z,42.20
2017-12-27T15:39:15.520Z,42.20
2017-12-27T15:41:48.180Z,42.20
2017-12-27T15:44:20.758Z,42.20
2017-12-27T15:46:53.338Z,42.20
2017-12-27T15:49:26.043Z,42.20
2017-12-27T15:51:58.600Z,42.30
2017-12-27T15:54:32.623Z,42.30
2017-12-27T15:57:05.170Z,42.30
2017-12-27T15:59:37.776Z,42.20
2017-12-27T16:02:10.392Z,42.30
2017-12-27T16:04:42.906Z,42.30
2017-12-27T16:07:15.358Z,42.20
2017-12-27T16:09:48.798Z,42.30
2017-12-27T16:12:21.337Z,42.30
2017-12-27T16:14:54.425Z,42.30
2017-12-27T16:17:26.899Z,42.30
2017-12-27T16:19:59.606Z,42.30
2017-12-27T16:22:32.350Z,42.30
2017-12-27T16:25:05.031Z,42.30
2017-12-27T16:27:37.606Z,42.30
2017-12-27T16:30:10.938Z,42.30
2017-12-27T16:32:44.304Z,42.30
2017-12-27T16:35:17.687Z,42.30
2017-12-27T16:37:51.000Z,42.50
2017-12-27T16:40:23.875Z,42.30
2017-12-27T16:42:56.781Z,42.30
2017-12-27T16:45:29.643Z,42.30
2017-12-27T16:48:02.307Z,42.30
2017-12-27T16:50:35.272Z,42.30
2017-12-27T16:53:07.887Z,42.30
2017-12-27T16:55:41.302Z,42.30
2017-12-27T16:58:14.801Z,42.30
2017-12-27T17:00:47.579Z,42.30
2017-12-27T17:03:20.230Z,42.30
2017-12-27T17:05:53.007Z,42.30
2017-12-27T17:08:25.677Z,42.30
2017-12-27T17:10:58.261Z,42.30
2017-12-27T17:13:30.941Z,42.30
2017-12-27T17:16:03.539Z,42.30
2017-12-27T17:18:36.323Z,42.30
2017-12-27T17:21:09.068Z,42.30
2017-12-27T17:23:41.571Z,42.30
2017-12-27T17:26:14.280Z,42.30
2017-12-27T17:28:46.933Z,42.40
2017-12-27T17:31:19.574Z,42.40
2017-12-27T17:33:52.692Z,42.40
2017-12-27T17:36:25.377Z,42.30
2017-12-27T17:38:58.031Z,42.30
2017-12-27T17:41:31.628Z,42.40
2017-12-27T17:44:04.232Z,42.40
2017-12-27T17:46:37.932Z,42.30
2017-12-27T17:49:10.816Z,42.40
2017-12-27T17:51:43.492Z,42.30
2017-12-27T17:54:16.860Z,42.40
2017-12-27T17:56:49.764Z,42.40
2017-12-27T17:59:22.624Z,42.40
2017-12-27T18:01:55.535Z,42.40
2017-12-27T18:04:29.002Z,42.40
2017-12-27T18:07:02.321Z,42.60
2017-12-27T18:09:35.103Z,42.40
2017-12-27T18:12:07.684Z,42.40
2017-12-27T18:14:40.299Z,42.40
2017-12-27T18:17:13.016Z,42.40
2017-12-27T18:19:45.815Z,42.40
2017-12-27T18:22:18.518Z,42.40
2017-12-27T18:24:51.458Z,42.40
2017-12-27T18:27:24.097Z,42.40
2017-12-27T18:29:56.608Z,42.40
2017-12-27T18:32:29.314Z,42.40
2017-12-27T18:35:02.774Z,42.40
2017-12-27T18:37:36.175Z,42.40
2017-12-27T18:40:08.913Z,42.40
2017-12-27T18:42:41.532Z,42.40
2017-12-27T18:45:14.231Z,42.40
2017-12-27T19:11:18.288Z,42.50
2017-12-27T19:13:50.731Z,42.50
2017-12-27T19:16:24.326Z,42.50
2017-12-27T19:18:57.012Z,42.50
2017-12-27T19:21:29.893Z,42.40
2017-12-27T19:24:02.569Z,42.40
2017-12-27T19:26:35.579Z,42.40
2017-12-27T19:29:08.127Z,42.40
2017-12-27T19:31:40.910Z,42.40
2017-12-27T19:34:14.237Z,42.50
2017-12-27T19:36:46.991Z,42.40
2017-12-27T19:39:19.674Z,42.40
2017-12-27T19:41:53.290Z,42.40
2017-12-27T19:44:27.502Z,42.40
2017-12-27T19:47:00.257Z,42.40
2017-12-27T19:49:34.755Z,42.40
2017-12-27T19:52:07.889Z,42.40
2017-12-27T19:54:41.351Z,42.40
2017-12-27T19:57:14.141Z,42.40
2017-12-27T19:59:46.615Z,42.40
2017-12-27T20:02:19.401Z,42.40
2017-12-27T20:04:52.199Z,42.40
2017-12-27T20:07:24.950Z,42.40
2017-12-27T20:09:57.536Z,42.40
2017-12-27T20:12:31.255Z,42.40
2017-12-27T20:15:03.808Z,42.40
2017-12-27T20:17:36.409Z,42.40
2017-12-27T20:20:09.170Z,42.40
2017-12-27T20:22:42.585Z,42.40
2017-12-27T20:25:15.445Z,42.40
2017-12-27T20:27:49.043Z,42.40
2017-12-27T20:30:21.717Z,42.40
2017-12-27T20:32:55.356Z,42.90
2017-12-27T20:35:28.198Z,42.40
2017-12-27T20:38:00.881Z,42.40
2017-12-27T20:40:33.685Z,42.40
2017-12-27T20:43:06.352Z,42.40
2017-12-27T20:45:38.982Z,42.40
2017-12-27T20:48:11.433Z,42.40
2017-12-27T20:50:43.964Z,42.40
2017-12-27T20:53:17.688Z,42.40
2017-12-27T20:55:50.267Z,42.40
2017-12-27T20:58:22.912Z,42.40
2017-12-27T21:00:55.490Z,42.40
2017-12-27T21:03:28.095Z,42.40
2017-12-27T21:06:01.079Z,42.40
2017-12-27T21:08:33.838Z,42.40
2017-12-27T21:11:06.402Z,42.40
2017-12-27T21:13:39.192Z,42.40
2017-12-27T21:16:11.789Z,42.40
2017-12-27T21:18:44.673Z,42.40
2017-12-27T21:21:17.350Z,42.40
2017-12-27T21:23:49.798Z,42.40
2017-12-27T21:26:22.371Z,42.40
2017-12-27T21:28:54.862Z,42.40
2017-12-27T21:31:27.523Z,42.40
2017-12-27T21:34:00.125Z,42.40
2017-12-27T21:36:32.803Z,42.40
2017-12-27T21:39:05.594Z,42.40
2017-12-27T21:41:39.798Z,42.40
2017-12-27T21:44:12.346Z,42.40
2017-12-27T21:46:45.872Z,42.40
2017-12-27T21:49:18.441Z,42.40
2017-12-27T21:51:52.045Z,42.40
2017-12-27T21:54:24.742Z,42.30
2017-12-27T21:59:35.496Z,42.30
2017-12-27T22:02:08.147Z,42.30
2017-12-27T22:04:41.065Z,42.30
2017-12-27T22:07:13.720Z,42.40
2017-12-27T22:09:46.497Z,42.30
2017-12-27T22:12:26.843Z,42.40
2017-12-27T22:14:59.561Z,42.30
2017-12-27T22:17:32.239Z,43.10
2017-12-27T22:20:07.863Z,42.30
2017-12-27T22:22:40.641Z,42.30
2017-12-27T22:25:13.243Z,42.30
2017-12-27T22:27:46.024Z,42.30
2017-12-27T22:30:18.631Z,42.30
2017-12-27T22:32:51.274Z,42.30
2017-12-27T22:38:07.661Z,42.30
2017-12-27T22:40:40.339Z,42.30
2017-12-27T22:53:05.402Z,42.30
2017-12-27T22:55:38.631Z,42.30
2017-12-27T22:58:11.089Z,42.30
2017-12-27T23:00:43.628Z,41.90
2017-12-27T23:03:16.443Z,42.40
2017-12-27T23:05:49.020Z,42.30
2017-12-27T23:08:24.534Z,42.40
2017-12-27T23:10:57.091Z,42.30
2017-12-27T23:13:29.774Z,42.30
2017-12-27T23:16:02.505Z,42.40
2017-12-27T23:18:35.252Z,42.30
2017-12-27T23:21:07.927Z,42.30
2017-12-27T23:23:40.824Z,42.30
2017-12-27T23:26:13.585Z,42.30
2017-12-27T23:28:46.402Z,42.30
2017-12-27T23:31:19.047Z,42.30
2017-12-27T23:33:51.655Z,42.30
2017-12-27T23:36:24.511Z,42.30
2017-12-27T23:38:57.190Z,42.30
2017-12-27T23:41:29.763Z,42.30
2017-12-27T23:44:02.442Z,42.30
2017-12-27T23:46:34.943Z,42.30
2017-12-27T23:49:07.666Z,42.30
2017-12-27T23:51:40.265Z,42.30
2017-12-27T23:54:13.358Z,42.30
2017-12-27T23:56:46.094Z,42.30
2017-12-27T23:59:19.760Z,42.30
